createdAt,value
2023-11-17T00:02:25.105Z,2.50
2023-11-17T00:04:53.138Z,3.30
2023-11-17T00:07:21.258Z,4.53
2023-11-17T00:09:49.316Z,4.87
2023-11-17T00:12:17.305Z,4.30
2023-11-17T00:14:45.219Z,4.00
2023-11-17T00:17:13.177Z,4.30
2023-11-17T00:19:41.243Z,3.33
2023-11-17T00:22:09.427Z,4.73
2023-11-17T00:24:37.397Z,5.17
2023-11-17T00:27:05.687Z,4.03
2023-11-17T00:29:34.252Z,4.10
2023-11-17T00:32:02.092Z,4.33
2023-11-17T00:34:30.254Z,3.47
2023-11-17T00:36:59.691Z,3.60
2023-11-17T00:39:29.474Z,4.03
2023-11-17T00:41:58.014Z,4.10
2023-11-17T00:44:26.189Z,3.73
2023-11-17T00:46:54.874Z,2.37
2023-11-17T00:49:23.913Z,2.87
2023-11-17T00:51:53.159Z,4.03
2023-11-17T00:54:27.746Z,3.67
2023-11-17T00:56:56.716Z,3.97
2023-11-17T00:59:24.810Z,3.57
2023-11-17T01:01:53.383Z,3.30
2023-11-17T01:04:21.497Z,3.53
2023-11-17T01:06:55.403Z,2.50
2023-11-17T01:09:24.421Z,3.13
2023-11-17T01:11:51.464Z,2.80
2023-11-17T01:14:19.911Z,3.00
2023-11-17T01:16:48.397Z,3.20
2023-11-17T01:19:16.482Z,5.30
2023-11-17T01:21:44.970Z,5.97
2023-11-17T01:24:13.050Z,3.37
2023-11-17T01:26:41.316Z,2.63
2023-11-17T01:29:10.223Z,2.97
2023-11-17T01:31:38.207Z,2.47
2023-11-17T01:34:07.366Z,2.57
2023-11-17T01:36:35.897Z,3.90
2023-11-17T01:39:05.076Z,3.03
2023-11-17T01:41:33.048Z,3.37
2023-11-17T01:44:03.081Z,2.63
2023-11-17T01:46:31.368Z,3.90
2023-11-17T01:48:59.602Z,4.03
2023-11-17T01:51:28.409Z,6.87
2023-11-17T01:53:57.009Z,3.80
2023-11-17T01:56:26.575Z,2.93
2023-11-17T01:58:55.035Z,5.60
2023-11-17T02:01:23.104Z,3.27
2023-11-17T02:03:51.556Z,4.10
2023-11-17T02:06:36.927Z,4.47
2023-11-17T02:09:14.799Z,3.30
2023-11-17T02:12:05.342Z,3.50
2023-11-17T02:14:40.581Z,3.57
2023-11-17T02:17:10.822Z,2.53
2023-11-17T02:19:44.709Z,4.07
2023-11-17T02:22:17.451Z,3.43
2023-11-17T02:25:12.637Z,3.63
2023-11-17T02:27:51.755Z,4.33
2023-11-17T02:30:21.116Z,3.83
2023-11-17T02:32:51.618Z,4.27
2023-11-17T02:35:20.079Z,5.03
2023-11-17T02:37:51.645Z,3.70
2023-11-17T02:40:20.947Z,3.38
2023-11-17T02:42:52.413Z,4.33
2023-11-17T02:45:22.138Z,3.55
2023-11-17T02:47:54.270Z,2.97
2023-11-17T02:50:33.126Z,3.00
2023-11-17T02:53:18.371Z,3.30
2023-11-17T02:55:47.672Z,4.17
2023-11-17T02:58:16.993Z,3.80
2023-11-17T03:00:52.913Z,3.20
2023-11-17T03:03:24.102Z,3.37
2023-11-17T03:05:59.405Z,4.15
2023-11-17T03:08:28.067Z,4.50
2023-11-17T03:11:02.179Z,5.57
2023-11-17T03:13:33.368Z,5.03
2023-11-17T03:16:01.961Z,5.22
2023-11-17T03:18:32.077Z,3.47
2023-11-17T03:21:03.191Z,5.10
2023-11-17T03:23:34.234Z,4.68
2023-11-17T03:26:02.772Z,5.00
2023-11-17T03:28:30.733Z,4.80
2023-11-17T03:30:58.755Z,4.97
2023-11-17T03:33:30.791Z,4.27
2023-11-17T03:35:58.887Z,4.37
2023-11-17T03:38:27.545Z,4.60
2023-11-17T03:40:56.450Z,4.43
2023-11-17T03:43:24.431Z,4.07
2023-11-17T03:45:54.217Z,3.53
2023-11-17T03:48:23.754Z,3.37
2023-11-17T03:50:52.313Z,3.77
2023-11-17T03:53:20.227Z,3.10
2023-11-17T03:55:48.239Z,2.47
2023-11-17T03:58:16.947Z,2.53
2023-11-17T04:00:50.257Z,3.70
2023-11-17T04:03:19.279Z,2.50
2023-11-17T04:05:47.750Z,4.03
2023-11-17T04:08:18.383Z,3.97
2023-11-17T04:10:47.860Z,3.23
2023-11-17T04:13:16.868Z,2.90
2023-11-17T04:15:47.255Z,4.07
2023-11-17T04:18:15.340Z,3.83
2023-11-17T04:20:43.464Z,2.97
2023-11-17T04:23:13.337Z,3.80
2023-11-17T04:25:41.294Z,2.63
2023-11-17T04:28:09.299Z,2.77
2023-11-17T04:30:37.256Z,2.60
2023-11-17T04:33:05.393Z,4.33
2023-11-17T04:35:33.520Z,3.70
2023-11-17T04:38:01.517Z,2.97
2023-11-17T04:40:29.453Z,2.73
2023-11-17T04:42:57.411Z,3.20
2023-11-17T04:45:26.710Z,2.60
2023-11-17T04:47:54.918Z,3.57
2023-11-17T04:50:22.952Z,3.33
2023-11-17T04:52:51.065Z,3.47
2023-11-17T04:55:19.138Z,2.73
2023-11-17T04:57:47.220Z,4.13
2023-11-17T05:00:17.956Z,2.87
2023-11-17T05:02:46.161Z,4.90
2023-11-17T05:05:15.557Z,4.20
2023-11-17T05:07:45.865Z,3.70
2023-11-17T05:10:20.809Z,3.77
2023-11-17T05:12:50.122Z,4.37
2023-11-17T05:15:21.719Z,4.37
2023-11-17T05:17:50.720Z,3.15
2023-11-17T05:20:23.983Z,3.90
2023-11-17T05:22:53.359Z,3.33
2023-11-17T05:25:21.504Z,4.27
2023-11-17T05:27:50.537Z,3.73
2023-11-17T05:30:19.537Z,3.90
2023-11-17T05:32:47.770Z,4.70
2023-11-17T05:35:16.059Z,4.27
2023-11-17T05:37:44.038Z,4.43
2023-11-17T05:40:12.583Z,3.50
2023-11-17T05:42:40.992Z,4.60
2023-11-17T05:45:13.462Z,3.77
2023-11-17T05:47:42.378Z,3.40
2023-11-17T05:50:13.032Z,3.93
2023-11-17T05:52:42.668Z,3.75
2023-11-17T05:55:12.341Z,4.37
2023-11-17T05:57:44.038Z,4.07
2023-11-17T06:02:44.070Z,4.75
2023-11-17T06:05:14.534Z,4.27
2023-11-17T06:07:42.778Z,4.57
2023-11-17T06:10:11.634Z,4.47
2023-11-17T06:12:40.070Z,4.33
2023-11-17T06:15:08.509Z,5.43
2023-11-17T06:17:37.412Z,4.93
2023-11-17T06:20:06.273Z,6.80
2023-11-17T06:22:34.243Z,4.17
2023-11-17T06:25:02.164Z,3.63
2023-11-17T06:27:31.382Z,3.57
2023-11-17T06:29:59.328Z,4.27
2023-11-17T06:32:27.361Z,3.93
2023-11-17T06:34:55.244Z,2.57
2023-11-17T06:37:23.233Z,3.73
2023-11-17T06:39:52.019Z,3.40
2023-11-17T06:42:20.188Z,3.03
2023-11-17T06:44:48.148Z,3.20
2023-11-17T06:47:17.757Z,2.30
2023-11-17T06:49:45.783Z,2.27
2023-11-17T06:52:14.307Z,3.73
2023-11-17T06:54:42.249Z,2.40
2023-11-17T06:57:10.153Z,2.73
2023-11-17T06:59:38.085Z,4.07
2023-11-17T07:02:08.329Z,2.60
2023-11-17T07:04:36.407Z,2.23
2023-11-17T07:07:07.696Z,2.43
2023-11-17T07:09:38.482Z,2.17
2023-11-17T07:12:09.202Z,2.07
2023-11-17T07:14:37.436Z,2.20
2023-11-17T07:17:06.220Z,2.10
2023-11-17T07:19:35.472Z,2.70
2023-11-17T07:22:04.142Z,1.87
2023-11-17T07:24:32.534Z,2.50
2023-11-17T07:27:02.792Z,1.77
2023-11-17T07:29:33.339Z,2.57
2023-11-17T07:32:01.678Z,2.23
2023-11-17T07:34:30.477Z,3.30
2023-11-17T07:36:58.493Z,2.70
2023-11-17T07:39:28.742Z,4.10
2023-11-17T07:41:56.755Z,4.77
2023-11-17T07:44:30.954Z,4.47
2023-11-17T07:47:01.281Z,3.23
2023-11-17T07:49:29.209Z,5.33
2023-11-17T07:51:57.258Z,4.30
2023-11-17T07:54:26.683Z,3.17
2023-11-17T07:56:54.771Z,2.90
2023-11-17T07:59:24.817Z,2.20
2023-11-17T08:01:53.488Z,2.27
2023-11-17T08:04:23.809Z,2.30
2023-11-17T08:06:54.247Z,2.30
2023-11-17T08:09:23.346Z,1.90
2023-11-17T08:11:52.081Z,1.27
2023-11-17T08:14:20.496Z,1.20
2023-11-17T08:16:48.542Z,2.73
2023-11-17T08:19:23.002Z,2.63
2023-11-17T08:21:56.835Z,2.67
2023-11-17T08:24:25.352Z,3.67
2023-11-17T08:26:53.699Z,2.60
2023-11-17T08:29:24.188Z,4.37
2023-11-17T08:31:53.416Z,4.93
2023-11-17T08:34:22.726Z,4.07
2023-11-17T08:36:51.419Z,5.03
2023-11-17T08:39:28.417Z,5.70
2023-11-17T08:41:57.794Z,3.87
2023-11-17T08:44:27.117Z,2.83
2023-11-17T08:46:56.044Z,3.53
2023-11-17T08:49:24.204Z,5.20
2023-11-17T08:51:52.959Z,3.33
2023-11-17T08:54:22.620Z,3.27
2023-11-17T08:56:50.711Z,4.63
2023-11-17T08:59:21.281Z,2.63
2023-11-17T09:01:50.086Z,3.40
2023-11-17T09:04:18.595Z,4.27
2023-11-17T09:06:46.912Z,5.57
2023-11-17T09:11:48.884Z,5.38
2023-11-17T09:14:16.882Z,5.07
2023-11-17T09:16:49.810Z,3.87
2023-11-17T09:19:19.008Z,4.65
2023-11-17T09:21:48.047Z,4.18
2023-11-17T09:24:16.224Z,3.60
2023-11-17T09:26:44.108Z,2.60
2023-11-17T09:29:12.663Z,2.70
2023-11-17T09:31:40.671Z,3.38
2023-11-17T09:34:10.194Z,2.65
2023-11-17T09:36:42.280Z,2.63
2023-11-17T09:39:11.651Z,7.07
2023-11-17T09:41:42.936Z,3.00
2023-11-17T09:44:12.282Z,9.75
2023-11-17T09:47:05.500Z,4.68
2023-11-17T09:49:35.616Z,2.33
2023-11-17T09:52:04.280Z,2.05
2023-11-17T09:54:35.938Z,1.38
2023-11-17T09:59:34.097Z,2.53
2023-11-17T10:02:02.313Z,1.92
2023-11-17T10:04:30.635Z,1.95
2023-11-17T10:06:59.605Z,2.30
2023-11-17T10:09:29.073Z,2.60
2023-11-17T10:11:57.475Z,2.00
2023-11-17T10:14:28.425Z,2.70
2023-11-17T10:16:59.499Z,2.40
2023-11-17T10:19:29.789Z,1.48
2023-11-17T10:21:59.384Z,2.20
2023-11-17T10:24:29.455Z,2.90
2023-11-17T10:26:59.035Z,1.20
2023-11-17T10:29:27.147Z,1.48
2023-11-17T10:32:16.852Z,1.60
2023-11-17T10:35:26.315Z,1.58
2023-11-17T10:37:56.933Z,1.88
2023-11-17T10:40:26.457Z,1.30
2023-11-17T10:43:23.357Z,1.55
2023-11-17T10:46:00.921Z,0.98
2023-11-17T10:48:29.100Z,1.02
2023-11-17T10:51:06.413Z,1.30
2023-11-17T10:53:36.201Z,0.95
2023-11-17T10:56:05.287Z,1.27
2023-11-17T10:58:34.351Z,0.85
2023-11-17T11:01:09.477Z,1.27
2023-11-17T11:03:38.735Z,1.40
2023-11-17T11:06:08.790Z,0.93
2023-11-17T11:08:37.019Z,3.35
2023-11-17T11:11:06.009Z,1.20
2023-11-17T11:13:35.709Z,0.50
2023-11-17T11:16:08.783Z,0.50
2023-11-17T11:18:38.889Z,0.60
2023-11-17T11:21:10.683Z,0.82
2023-11-17T11:23:40.374Z,0.13
2023-11-17T11:26:09.067Z,0.05
2023-11-17T11:28:37.204Z,0.32
2023-11-17T11:31:07.622Z,0.40
2023-11-17T11:33:36.745Z,0.20
2023-11-17T11:36:06.581Z,0.20
2023-11-17T11:38:35.367Z,1.20
2023-11-17T11:41:04.060Z,0.32
2023-11-17T11:43:32.314Z,0.10
2023-11-17T11:46:00.472Z,0.32
2023-11-17T11:48:31.957Z,0.30
2023-11-17T11:53:50.769Z,0.20
2023-11-17T11:56:20.436Z,0.40
2023-11-17T11:58:49.815Z,0.10
2023-11-17T12:01:21.816Z,0.40
2023-11-17T12:03:54.719Z,0.00
2023-11-17T12:06:27.754Z,0.00
2023-11-17T12:08:58.868Z,0.52
2023-11-17T12:11:44.173Z,0.10
2023-11-17T12:14:12.216Z,0.40
2023-11-17T12:16:40.139Z,0.10
2023-11-17T12:19:10.408Z,1.20
2023-11-17T12:21:40.431Z,0.05
2023-11-17T12:24:15.031Z,0.10
2023-11-17T12:26:45.657Z,0.10
2023-11-17T12:31:56.554Z,0.00
2023-11-17T12:34:25.993Z,0.13
2023-11-17T12:37:01.668Z,0.20
2023-11-17T12:39:41.195Z,0.13
2023-11-17T12:42:21.242Z,0.17
2023-11-17T12:44:50.627Z,0.50
2023-11-17T12:47:26.051Z,0.10
2023-11-17T12:50:00.485Z,0.13
2023-11-17T12:52:28.626Z,0.10
2023-11-17T12:55:09.080Z,0.10
2023-11-17T12:57:38.873Z,0.10
2023-11-17T13:00:15.084Z,0.10
2023-11-17T13:02:43.501Z,0.38
2023-11-17T13:05:12.784Z,0.03
2023-11-17T13:07:41.805Z,0.17
2023-11-17T13:10:12.652Z,0.20
2023-11-17T13:12:41.774Z,0.43
2023-11-17T13:15:10.831Z,0.00
2023-11-17T13:17:39.431Z,0.17
2023-11-17T13:20:15.539Z,0.20
2023-11-17T13:22:44.896Z,0.10
2023-11-17T13:25:13.390Z,0.00
2023-11-17T13:27:44.308Z,0.50
2023-11-17T13:30:15.243Z,0.40
2023-11-17T13:32:54.670Z,0.10
2023-11-17T13:35:26.990Z,0.40
2023-11-17T13:38:05.962Z,0.00
2023-11-17T13:40:38.799Z,0.20
2023-11-17T13:43:14.089Z,0.30
2023-11-17T13:45:43.950Z,0.50
2023-11-17T13:48:13.729Z,0.52
2023-11-17T13:50:43.631Z,1.65
2023-11-17T13:53:12.668Z,0.30
2023-11-17T13:55:43.986Z,0.20
2023-11-17T13:58:12.827Z,0.10
2023-11-17T14:00:43.953Z,0.20
2023-11-17T14:03:13.296Z,0.00
2023-11-17T14:05:43.667Z,0.30
2023-11-17T14:08:13.868Z,0.20
2023-11-17T14:10:43.026Z,0.15
2023-11-17T14:13:14.998Z,0.00
2023-11-17T14:15:51.776Z,1.00
2023-11-17T14:20:54.277Z,0.77
2023-11-17T14:23:22.944Z,1.63
2023-11-17T14:25:51.162Z,0.73
2023-11-17T14:28:19.392Z,0.75
2023-11-17T14:30:47.402Z,0.83
2023-11-17T14:33:16.037Z,0.87
2023-11-17T14:35:44.418Z,0.50
2023-11-17T14:38:12.556Z,0.50
2023-11-17T14:40:40.548Z,0.80
2023-11-17T14:43:08.956Z,0.60
2023-11-17T14:45:37.029Z,2.00
2023-11-17T14:48:06.100Z,1.03
2023-11-17T14:50:35.198Z,1.13
2023-11-17T14:53:03.371Z,1.10
2023-11-17T14:55:34.005Z,13.70
2023-11-17T14:58:07.542Z,2.25
2023-11-17T15:00:40.899Z,7.73
2023-11-17T15:03:09.581Z,9.83
2023-11-17T15:05:39.580Z,6.10
2023-11-17T15:08:10.926Z,4.47
2023-11-17T15:10:41.204Z,11.50
2023-11-17T15:13:09.852Z,12.63
2023-11-17T15:15:43.402Z,1.93
2023-11-17T15:18:13.886Z,3.17
2023-11-17T15:20:43.616Z,2.23
2023-11-17T15:23:11.690Z,1.47
2023-11-17T15:25:41.362Z,0.67
2023-11-17T15:28:14.337Z,0.27
2023-11-17T15:30:48.150Z,0.30
2023-11-17T15:33:18.184Z,0.57
2023-11-17T15:35:46.429Z,2.17
2023-11-17T15:38:14.704Z,2.33
2023-11-17T15:40:42.859Z,4.03
2023-11-17T15:43:12.029Z,11.17
2023-11-17T15:45:41.834Z,8.90
2023-11-17T15:48:10.267Z,20.00
2023-11-17T15:50:39.406Z,19.60
2023-11-17T15:53:07.706Z,9.50
2023-11-17T15:55:37.909Z,2.27
2023-11-17T15:58:06.740Z,4.63
2023-11-17T16:00:37.165Z,9.00
2023-11-17T16:03:07.434Z,10.93
2023-11-17T16:05:35.542Z,24.37
2023-11-17T16:08:03.610Z,13.20
2023-11-17T16:10:32.253Z,4.53
2023-11-17T16:13:00.820Z,10.87
2023-11-17T16:15:30.090Z,19.17
2023-11-17T16:17:59.551Z,46.87
2023-11-17T16:20:32.542Z,22.40
2023-11-17T16:23:01.800Z,12.80
2023-11-17T16:25:30.869Z,9.57
2023-11-17T16:28:00.361Z,3.03
2023-11-17T16:30:28.476Z,1.37
2023-11-17T16:32:56.919Z,1.53
2023-11-17T16:35:28.656Z,1.00
2023-11-17T16:37:57.291Z,1.27
2023-11-17T16:40:28.450Z,1.10
2023-11-17T16:43:09.272Z,1.60
2023-11-17T16:45:40.501Z,4.82
2023-11-17T16:48:09.206Z,9.40
2023-11-17T16:50:46.179Z,5.23
2023-11-17T16:53:16.961Z,5.50
2023-11-17T16:55:48.094Z,4.90
2023-11-17T16:58:16.661Z,11.00
2023-11-17T17:00:45.369Z,5.60
2023-11-17T17:03:14.968Z,6.93
2023-11-17T17:05:43.955Z,4.77
2023-11-17T17:08:12.028Z,5.13
2023-11-17T17:10:41.773Z,5.80
2023-11-17T17:13:09.988Z,14.43
2023-11-17T17:15:37.953Z,5.27
2023-11-17T17:18:09.697Z,1.73
2023-11-17T17:23:10.736Z,0.97
2023-11-17T17:25:40.575Z,0.90
2023-11-17T17:28:17.481Z,0.90
2023-11-17T17:30:47.275Z,1.97
2023-11-17T17:33:22.525Z,2.83
2023-11-17T17:35:51.204Z,2.00
2023-11-17T17:38:19.170Z,2.47
2023-11-17T17:40:47.842Z,1.87
2023-11-17T17:43:15.969Z,10.40
2023-11-17T17:45:45.586Z,9.37
2023-11-17T17:48:14.368Z,18.50
2023-11-17T17:50:42.715Z,24.27
2023-11-17T17:53:10.752Z,13.43
2023-11-17T17:55:38.836Z,6.60
2023-11-17T17:58:07.990Z,4.83
2023-11-17T18:00:36.416Z,2.90
2023-11-17T18:03:06.680Z,3.73
2023-11-17T18:05:35.941Z,7.00
2023-11-17T18:08:04.101Z,5.40
2023-11-17T18:10:33.252Z,5.27
2023-11-17T18:13:02.153Z,30.87
2023-11-17T18:15:30.315Z,18.63
2023-11-17T18:17:59.475Z,18.23
2023-11-17T18:20:29.416Z,7.90
2023-11-17T18:22:57.745Z,5.77
2023-11-17T18:25:27.120Z,13.80
2023-11-17T18:27:55.213Z,9.63
2023-11-17T18:30:24.260Z,5.13
2023-11-17T18:32:53.225Z,7.23
2023-11-17T18:35:23.939Z,9.23
2023-11-17T18:37:52.919Z,5.53
2023-11-17T18:40:26.122Z,5.90
2023-11-17T18:42:57.089Z,5.93
2023-11-17T18:45:25.747Z,6.07
2023-11-17T18:47:54.406Z,6.80
2023-11-17T18:50:22.766Z,7.70
2023-11-17T18:52:51.030Z,6.63
2023-11-17T18:55:19.577Z,8.63
2023-11-17T18:57:48.017Z,3.73
2023-11-17T19:00:20.853Z,2.80
2023-11-17T19:02:49.975Z,7.73
2023-11-17T19:05:19.785Z,5.50
2023-11-17T19:07:52.261Z,6.07
2023-11-17T19:10:22.217Z,2.67
2023-11-17T19:12:51.898Z,6.50
2023-11-17T19:15:22.973Z,6.60
2023-11-17T19:17:51.411Z,9.00
2023-11-17T19:20:19.496Z,6.97
2023-11-17T19:22:47.972Z,15.27
2023-11-17T19:25:17.766Z,11.60
2023-11-17T19:27:45.778Z,16.80
2023-11-17T19:30:18.173Z,12.43
2023-11-17T19:32:50.965Z,8.87
2023-11-17T19:35:21.020Z,13.07
2023-11-17T19:37:49.347Z,12.90
2023-11-17T19:40:17.912Z,12.83
2023-11-17T19:42:47.517Z,11.00
2023-11-17T19:45:18.990Z,8.77
2023-11-17T19:50:18.854Z,9.73
2023-11-17T19:52:51.444Z,6.38
2023-11-17T19:55:21.864Z,9.07
2023-11-17T19:57:50.367Z,7.67
2023-11-17T20:00:24.918Z,10.23
2023-11-17T20:02:56.563Z,16.67
2023-11-17T20:05:25.269Z,21.17
2023-11-17T20:07:54.922Z,14.73
2023-11-17T20:10:23.169Z,2.33
2023-11-17T20:12:51.206Z,2.90
2023-11-17T20:15:19.570Z,2.13
2023-11-17T20:17:55.812Z,15.40
2023-11-17T20:20:28.349Z,13.03
2023-11-17T20:23:01.599Z,14.32
2023-11-17T20:25:29.776Z,7.03
2023-11-17T20:27:59.067Z,8.03
2023-11-17T20:30:27.222Z,9.43
2023-11-17T20:32:58.956Z,9.27
2023-11-17T20:35:27.385Z,7.03
2023-11-17T20:37:55.509Z,9.00
2023-11-17T20:40:25.838Z,7.43
2023-11-17T20:42:54.130Z,7.80
2023-11-17T20:45:24.793Z,6.50
2023-11-17T20:47:53.137Z,5.85
2023-11-17T20:50:25.721Z,5.30
2023-11-17T20:52:54.402Z,5.13
2023-11-17T20:55:23.492Z,5.07
2023-11-17T20:57:52.802Z,5.20
2023-11-17T21:00:22.958Z,4.53
2023-11-17T21:02:58.331Z,5.37
2023-11-17T21:05:27.607Z,7.03
2023-11-17T21:07:57.112Z,4.00
2023-11-17T21:10:27.905Z,3.57
2023-11-17T21:12:56.962Z,2.53
2023-11-17T21:15:27.712Z,1.77
2023-11-17T21:17:56.523Z,1.50
2023-11-17T21:20:25.186Z,1.83
2023-11-17T21:22:53.202Z,2.00
2023-11-17T21:25:23.142Z,1.07
2023-11-17T21:27:53.750Z,1.25
2023-11-17T21:30:22.208Z,2.07
2023-11-17T21:32:51.150Z,2.67
2023-11-17T21:35:20.686Z,2.20
2023-11-17T21:37:53.634Z,1.97
2023-11-17T21:40:23.782Z,3.00
2023-11-17T21:42:52.661Z,2.37
2023-11-17T21:45:25.015Z,1.67
2023-11-17T21:47:54.868Z,1.30
2023-11-17T21:50:25.385Z,1.07
2023-11-17T21:52:55.509Z,2.53
2023-11-17T21:55:23.867Z,1.43
2023-11-17T21:57:52.381Z,2.23
2023-11-17T22:00:21.139Z,1.93
2023-11-17T22:02:50.926Z,2.40
2023-11-17T22:05:20.952Z,2.57
2023-11-17T22:07:50.770Z,2.77
2023-11-17T22:10:19.335Z,2.53
2023-11-17T22:12:49.433Z,1.70
2023-11-17T22:15:19.845Z,2.33
2023-11-17T22:17:48.527Z,1.97
2023-11-17T22:20:19.639Z,2.33
2023-11-17T22:22:51.473Z,1.67
2023-11-17T22:25:22.642Z,1.93
2023-11-17T22:27:52.962Z,2.90
2023-11-17T22:30:25.669Z,2.40
2023-11-17T22:32:56.679Z,2.67
2023-11-17T22:35:26.417Z,2.80
2023-11-17T22:37:55.869Z,2.80
2023-11-17T22:40:25.134Z,3.13
2023-11-17T22:42:54.404Z,4.43
2023-11-17T22:45:22.950Z,4.47
2023-11-17T22:47:51.614Z,2.93
2023-11-17T22:50:20.328Z,3.50
2023-11-17T22:52:50.587Z,2.17
2023-11-17T22:55:20.699Z,3.00
2023-11-17T22:57:49.522Z,2.33
2023-11-17T23:00:35.776Z,2.33
2023-11-17T23:03:05.416Z,3.57
2023-11-17T23:05:34.410Z,4.03
2023-11-17T23:08:03.099Z,3.03
2023-11-17T23:10:33.713Z,2.30
2023-11-17T23:13:02.875Z,3.70
2023-11-17T23:15:31.450Z,1.90
2023-11-17T23:17:59.751Z,2.93
2023-11-17T23:20:28.445Z,3.33
2023-11-17T23:22:57.486Z,4.30
2023-11-17T23:25:26.830Z,5.17
2023-11-17T23:27:54.982Z,4.00
2023-11-17T23:30:24.049Z,2.77
2023-11-17T23:32:52.469Z,2.60
2023-11-17T23:35:20.446Z,1.17
2023-11-17T23:37:49.648Z,1.00
2023-11-17T23:40:18.461Z,1.17
2023-11-17T23:42:49.507Z,1.70
2023-11-17T23:45:19.047Z,0.90
2023-11-17T23:47:47.112Z,1.20
2023-11-17T23:50:15.241Z,2.03
2023-11-17T23:52:43.185Z,2.30
2023-11-17T23:55:14.303Z,1.40
2023-11-17T23:57:42.650Z,1.98
